CheckWX is a tool to help pilots better visualize weather data.  It is not intended as a substitute for an official pre-flight weather briefing.

07:30:29 UTC

KVPS TAF
Eglin AFB / Destin-Ft Walton Beach Airport
Valparaiso/Destin-Ft Walton Beach, Florida, USA
TAF KVPS 200105Z 2001/2107 24006KT 9999 SCT026 BKN070 BKN190 QNH3003INS BECMG 2009/2010 24004KT 8000 -SHRA SCT018 BKN026 OVC040 QNH3004INS BECMG 2015/2016 22009KT 9000 -SHRA VCTS SCT026CB BKN055 BKN250 QNH3006INS TEMPO 2016/2023 19013G20KT 4800 -TSRA SCT015 BKN026CB BKN040 BKN250 BECMG 2100/2101 19006KT 9999 NSW SCT015 OVC026 QNH3005INS TX30/2021Z TN23/2010Z

Aug-20@
01:00 UTC

Aug-20 @ 01:00 UTC

Aug-20@
09:00 UTC

Aug-20 @ 09:00 UTC

TAF KVPS 200105Z 2001/2107 24006KT 9999 SCT026 BKN070 BKN190 QNH3003INS
Wind
  • 240° at 6 KTS
Cloud Levels
  • Scattered at 2,600' AGL
  • Broken at 7,000' AGL
  • Broken at 19,000' AGL

Aug-20@
09:00 UTC

Aug-20 @ 09:00 UTC

Aug-20@
15:00 UTC

Aug-20 @ 15:00 UTC

BECMG 2009/2010 24004KT 8000 -SHRA SCT018 BKN026 OVC040 QNH3004INS

Becoming

Becoming Conditions expected by Tue, Aug 20, 2019 @ 10:00 UTC

Wind
  • 240° at 4 KTS
Conditions
Light Rain
Cloud Levels
  • Scattered at 1,800' AGL
  • Broken at 2,600' AGL
  • Overcast at 4,000' AGL

Aug-20@
15:00 UTC

Aug-20 @ 15:00 UTC

Aug-21@
00:00 UTC

Aug-21 @ 00:00 UTC

BECMG 2015/2016 22009KT 9000 -SHRA VCTS SCT026CB BKN055 BKN250 QNH3006INS

Becoming

Becoming Conditions expected by Tue, Aug 20, 2019 @ 16:00 UTC

Wind
  • 220° at 9 KTS
Conditions
Light Rain, Area Thunderstorm
Cloud Levels
  • Scattered at 2,600' AGL
  • Broken at 5,500' AGL
  • Broken at 25,000' AGL

Aug-20@
16:00 UTC

Aug-20 @ 16:00 UTC

Aug-20@
23:00 UTC

Aug-20 @ 23:00 UTC

TEMPO 2016/2023 19013G20KT 4800 -TSRA SCT015 BKN026CB BKN040 BKN250

Temporary

Temporary Changes expected for less than half the time period

Wind
  • 190° at 13 KTS
  • {Gusting to 20 KTS
Conditions
Light Thunderstorm, Light Rain
Cloud Levels
  • Scattered at 1,500' AGL
  • Broken at 2,600' AGL
  • Broken at 4,000' AGL

Aug-21@
00:00 UTC

Aug-21 @ 00:00 UTC

Aug-21@
07:00 UTC

Aug-21 @ 07:00 UTC

BECMG 2100/2101 19006KT 9999 NSW SCT015 OVC026 QNH3005INS TX30/2021Z TN23/2010Z

Becoming

Becoming Conditions expected by Wed, Aug 21, 2019 @ 01:00 UTC

Wind
  • 190° at 6 KTS
Conditions
No significant weather
Cloud Levels
  • Scattered at 1,500' AGL
  • Overcast at 2,600' AGL